sensor_id;sensor_type;location;lat;lon;timestamp;P1;durP1;ratioP1;P2;durP2;ratioP2
2390;SDS011;22957;50.824;4.360;2022-11-30T00:02:22;19.40;;;11.50;;
2390;SDS011;22957;50.824;4.360;2022-11-30T00:04:48;24.63;;;13.60;;
2390;SDS011;22957;50.824;4.360;2022-11-30T00:07:14;23.13;;;12.23;;
2390;SDS011;22957;50.824;4.360;2022-11-30T00:09:39;22.87;;;12.60;;
2390;SDS011;22957;50.824;4.360;2022-11-30T00:12:05;19.60;;;11.23;;
2390;SDS011;22957;50.824;4.360;2022-11-30T00:14:32;15.20;;;9.53;;
2390;SDS011;22957;50.824;4.360;2022-11-30T00:16:57;17.67;;;10.63;;
2390;SDS011;22957;50.824;4.360;2022-11-30T00:19:23;18.20;;;11.10;;
2390;SDS011;22957;50.824;4.360;2022-11-30T00:21:49;17.63;;;10.27;;
2390;SDS011;22957;50.824;4.360;2022-11-30T00:24:14;14.00;;;8.40;;
2390;SDS011;22957;50.824;4.360;2022-11-30T00:26:40;16.20;;;9.03;;
2390;SDS011;22957;50.824;4.360;2022-11-30T00:29:06;14.50;;;8.87;;
2390;SDS011;22957;50.824;4.360;2022-11-30T00:31:31;18.30;;;11.50;;
2390;SDS011;22957;50.824;4.360;2022-11-30T00:33:57;17.50;;;10.60;;
2390;SDS011;22957;50.824;4.360;2022-11-30T00:36:23;18.70;;;9.90;;
2390;SDS011;22957;50.824;4.360;2022-11-30T00:38:49;15.00;;;8.20;;
2390;SDS011;22957;50.824;4.360;2022-11-30T00:41:15;15.93;;;10.57;;
2390;SDS011;22957;50.824;4.360;2022-11-30T00:43:42;15.17;;;8.67;;
2390;SDS011;22957;50.824;4.360;2022-11-30T00:46:08;16.67;;;9.87;;
2390;SDS011;22957;50.824;4.360;2022-11-30T00:48:35;14.67;;;8.50;;
2390;SDS011;22957;50.824;4.360;2022-11-30T00:51:01;18.20;;;12.10;;
2390;SDS011;22957;50.824;4.360;2022-11-30T00:53:27;20.60;;;10.60;;
2390;SDS011;22957;50.824;4.360;2022-11-30T00:55:53;16.07;;;9.80;;
2390;SDS011;22957;50.824;4.360;2022-11-30T00:58:19;19.67;;;11.17;;
2390;SDS011;22957;50.824;4.360;2022-11-30T01:00:45;15.97;;;10.33;;
2390;SDS011;22957;50.824;4.360;2022-11-30T01:03:11;17.37;;;10.17;;
2390;SDS011;22957;50.824;4.360;2022-11-30T01:05:37;22.00;;;12.80;;
2390;SDS011;22957;50.824;4.360;2022-11-30T01:08:04;16.73;;;11.10;;
2390;SDS011;22957;50.824;4.360;2022-11-30T01:10:32;16.00;;;8.60;;
2390;SDS011;22957;50.824;4.360;2022-11-30T01:13:02;15.80;;;9.50;;
2390;SDS011;22957;50.824;4.360;2022-11-30T01:15:28;15.17;;;8.10;;
2390;SDS011;22957;50.824;4.360;2022-11-30T01:17:54;18.03;;;9.70;;
2390;SDS011;22957;50.824;4.360;2022-11-30T01:20:20;24.07;;;11.80;;
2390;SDS011;22957;50.824;4.360;2022-11-30T01:22:46;27.83;;;11.30;;
2390;SDS011;22957;50.824;4.360;2022-11-30T01:25:11;25.73;;;12.37;;
2390;SDS011;22957;50.824;4.360;2022-11-30T01:27:37;19.30;;;11.47;;
2390;SDS011;22957;50.824;4.360;2022-11-30T01:30:03;23.50;;;10.87;;
2390;SDS011;22957;50.824;4.360;2022-11-30T01:32:29;18.87;;;10.30;;
2390;SDS011;22957;50.824;4.360;2022-11-30T01:34:55;22.40;;;11.50;;
2390;SDS011;22957;50.824;4.360;2022-11-30T01:37:20;23.00;;;11.93;;
2390;SDS011;22957;50.824;4.360;2022-11-30T01:39:47;16.60;;;9.60;;
2390;SDS011;22957;50.824;4.360;2022-11-30T01:42:16;22.07;;;12.03;;
2390;SDS011;22957;50.824;4.360;2022-11-30T01:44:48;20.27;;;9.93;;
2390;SDS011;22957;50.824;4.360;2022-11-30T01:47:42;24.77;;;11.23;;
2390;SDS011;22957;50.824;4.360;2022-11-30T01:50:12;18.10;;;9.40;;
2390;SDS011;22957;50.824;4.360;2022-11-30T01:52:42;17.33;;;10.03;;
2390;SDS011;22957;50.824;4.360;2022-11-30T01:58:24;20.20;;;11.33;;
2390;SDS011;22957;50.824;4.360;2022-11-30T02:00:53;23.50;;;12.83;;
2390;SDS011;22957;50.824;4.360;2022-11-30T02:03:27;15.57;;;8.53;;
2390;SDS011;22957;50.824;4.360;2022-11-30T02:06:04;22.63;;;11.93;;
2390;SDS011;22957;50.824;4.360;2022-11-30T02:08:29;18.67;;;9.90;;
2390;SDS011;22957;50.824;4.360;2022-11-30T02:10:57;21.93;;;10.43;;
2390;SDS011;22957;50.824;4.360;2022-11-30T02:18:57;15.43;;;9.47;;
2390;SDS011;22957;50.824;4.360;2022-11-30T02:29:20;23.70;;;12.03;;
2390;SDS011;22957;50.824;4.360;2022-11-30T02:34:32;15.83;;;9.10;;
2390;SDS011;22957;50.824;4.360;2022-11-30T02:37:00;24.50;;;13.97;;
2390;SDS011;22957;50.824;4.360;2022-11-30T02:39:28;21.57;;;11.87;;
2390;SDS011;22957;50.824;4.360;2022-11-30T02:41:54;24.07;;;13.67;;
2390;SDS011;22957;50.824;4.360;2022-11-30T02:44:20;28.07;;;12.80;;
2390;SDS011;22957;50.824;4.360;2022-11-30T02:49:45;26.70;;;12.87;;
2390;SDS011;22957;50.824;4.360;2022-11-30T02:52:20;27.73;;;12.60;;
2390;SDS011;22957;50.824;4.360;2022-11-30T02:54:48;29.77;;;14.00;;
2390;SDS011;22957;50.824;4.360;2022-11-30T02:57:14;23.63;;;12.00;;
2390;SDS011;22957;50.824;4.360;2022-11-30T02:59:39;21.60;;;10.73;;
2390;SDS011;22957;50.824;4.360;2022-11-30T03:02:05;32.57;;;14.77;;
2390;SDS011;22957;50.824;4.360;2022-11-30T03:04:31;38.27;;;15.83;;
2390;SDS011;22957;50.824;4.360;2022-11-30T03:06:57;37.23;;;16.60;;
2390;SDS011;22957;50.824;4.360;2022-11-30T03:09:23;42.53;;;15.90;;
2390;SDS011;22957;50.824;4.360;2022-11-30T03:11:48;43.70;;;16.00;;
2390;SDS011;22957;50.824;4.360;2022-11-30T03:14:14;35.17;;;15.47;;
2390;SDS011;22957;50.824;4.360;2022-11-30T03:16:40;31.87;;;14.10;;
2390;SDS011;22957;50.824;4.360;2022-11-30T03:19:05;32.63;;;14.43;;
2390;SDS011;22957;50.824;4.360;2022-11-30T03:21:31;30.53;;;13.00;;
2390;SDS011;22957;50.824;4.360;2022-11-30T03:23:56;36.63;;;16.40;;
2390;SDS011;22957;50.824;4.360;2022-11-30T03:26:22;33.53;;;15.33;;
2390;SDS011;22957;50.824;4.360;2022-11-30T03:28:48;46.57;;;18.00;;
2390;SDS011;22957;50.824;4.360;2022-11-30T03:31:13;36.13;;;13.40;;
2390;SDS011;22957;50.824;4.360;2022-11-30T03:33:39;39.07;;;14.90;;
2390;SDS011;22957;50.824;4.360;2022-11-30T03:36:06;27.30;;;12.83;;
2390;SDS011;22957;50.824;4.360;2022-11-30T03:38:34;38.17;;;14.37;;
2390;SDS011;22957;50.824;4.360;2022-11-30T03:41:00;26.07;;;12.43;;
2390;SDS011;22957;50.824;4.360;2022-11-30T03:43:28;37.33;;;14.67;;
2390;SDS011;22957;50.824;4.360;2022-11-30T03:45:54;37.30;;;14.00;;
2390;SDS011;22957;50.824;4.360;2022-11-30T03:48:20;39.40;;;15.47;;
2390;SDS011;22957;50.824;4.360;2022-11-30T03:50:46;33.80;;;15.90;;
2390;SDS011;22957;50.824;4.360;2022-11-30T03:53:14;53.87;;;14.23;;
2390;SDS011;22957;50.824;4.360;2022-11-30T03:55:41;40.10;;;15.03;;
2390;SDS011;22957;50.824;4.360;2022-11-30T03:58:07;33.30;;;13.13;;
2390;SDS011;22957;50.824;4.360;2022-11-30T04:00:32;30.53;;;13.23;;
2390;SDS011;22957;50.824;4.360;2022-11-30T04:02:58;25.53;;;10.87;;
2390;SDS011;22957;50.824;4.360;2022-11-30T04:05:24;30.53;;;13.70;;
2390;SDS011;22957;50.824;4.360;2022-11-30T04:07:49;28.00;;;11.53;;
2390;SDS011;22957;50.824;4.360;2022-11-30T04:10:15;28.57;;;12.10;;
2390;SDS011;22957;50.824;4.360;2022-11-30T04:12:41;25.83;;;12.13;;
2390;SDS011;22957;50.824;4.360;2022-11-30T04:15:06;27.87;;;12.50;;
2390;SDS011;22957;50.824;4.360;2022-11-30T04:17:32;24.97;;;11.77;;
2390;SDS011;22957;50.824;4.360;2022-11-30T04:19:58;39.23;;;16.53;;
2390;SDS011;22957;50.824;4.360;2022-11-30T04:22:24;37.17;;;15.57;;
2390;SDS011;22957;50.824;4.360;2022-11-30T04:24:49;25.13;;;13.17;;
2390;SDS011;22957;50.824;4.360;2022-11-30T04:27:15;35.80;;;15.40;;
2390;SDS011;22957;50.824;4.360;2022-11-30T04:29:40;38.07;;;15.70;;
2390;SDS011;22957;50.824;4.360;2022-11-30T04:32:06;26.10;;;12.80;;
2390;SDS011;22957;50.824;4.360;2022-11-30T04:34:32;39.57;;;15.60;;
2390;SDS011;22957;50.824;4.360;2022-11-30T04:36:57;46.73;;;18.37;;
2390;SDS011;22957;50.824;4.360;2022-11-30T04:39:23;32.57;;;15.67;;
2390;SDS011;22957;50.824;4.360;2022-11-30T04:41:48;37.17;;;15.60;;
2390;SDS011;22957;50.824;4.360;2022-11-30T04:44:14;45.33;;;18.77;;
2390;SDS011;22957;50.824;4.360;2022-11-30T04:46:40;60.87;;;16.20;;
2390;SDS011;22957;50.824;4.360;2022-11-30T04:49:06;32.40;;;13.53;;
2390;SDS011;22957;50.824;4.360;2022-11-30T04:51:31;45.10;;;16.63;;
2390;SDS011;22957;50.824;4.360;2022-11-30T04:53:57;33.33;;;13.73;;
2390;SDS011;22957;50.824;4.360;2022-11-30T04:56:23;29.37;;;14.67;;
2390;SDS011;22957;50.824;4.360;2022-11-30T04:58:48;47.17;;;16.20;;
2390;SDS011;22957;50.824;4.360;2022-11-30T05:01:14;40.93;;;16.77;;
2390;SDS011;22957;50.824;4.360;2022-11-30T05:03:40;25.67;;;13.00;;
2390;SDS011;22957;50.824;4.360;2022-11-30T05:06:05;34.27;;;13.90;;
2390;SDS011;22957;50.824;4.360;2022-11-30T05:08:31;33.53;;;13.90;;
2390;SDS011;22957;50.824;4.360;2022-11-30T05:10:56;25.40;;;11.80;;
2390;SDS011;22957;50.824;4.360;2022-11-30T05:13:23;28.23;;;13.27;;
2390;SDS011;22957;50.824;4.360;2022-11-30T05:15:49;30.30;;;13.33;;
2390;SDS011;22957;50.824;4.360;2022-11-30T05:18:17;28.67;;;13.73;;
2390;SDS011;22957;50.824;4.360;2022-11-30T05:20:49;36.63;;;15.80;;
2390;SDS011;22957;50.824;4.360;2022-11-30T05:23:16;27.37;;;11.57;;
2390;SDS011;22957;50.824;4.360;2022-11-30T05:25:43;31.67;;;14.33;;
2390;SDS011;22957;50.824;4.360;2022-11-30T05:28:09;34.97;;;15.63;;
2390;SDS011;22957;50.824;4.360;2022-11-30T05:30:36;30.17;;;12.73;;
2390;SDS011;22957;50.824;4.360;2022-11-30T05:33:03;26.37;;;10.93;;
2390;SDS011;22957;50.824;4.360;2022-11-30T05:35:29;26.97;;;12.57;;
2390;SDS011;22957;50.824;4.360;2022-11-30T05:37:55;21.90;;;10.90;;
2390;SDS011;22957;50.824;4.360;2022-11-30T05:40:20;26.80;;;11.53;;
2390;SDS011;22957;50.824;4.360;2022-11-30T05:42:46;27.23;;;12.20;;
2390;SDS011;22957;50.824;4.360;2022-11-30T05:45:11;27.97;;;12.23;;
2390;SDS011;22957;50.824;4.360;2022-11-30T05:47:37;37.13;;;16.83;;
2390;SDS011;22957;50.824;4.360;2022-11-30T05:50:03;44.53;;;16.10;;
2390;SDS011;22957;50.824;4.360;2022-11-30T05:52:29;37.43;;;16.57;;
2390;SDS011;22957;50.824;4.360;2022-11-30T05:54:55;27.50;;;13.33;;
2390;SDS011;22957;50.824;4.360;2022-11-30T05:57:20;40.80;;;16.33;;
2390;SDS011;22957;50.824;4.360;2022-11-30T05:59:46;44.07;;;18.90;;
2390;SDS011;22957;50.824;4.360;2022-11-30T06:02:12;42.93;;;18.20;;
2390;SDS011;22957;50.824;4.360;2022-11-30T06:04:37;28.87;;;12.27;;
2390;SDS011;22957;50.824;4.360;2022-11-30T06:07:03;44.73;;;17.90;;
2390;SDS011;22957;50.824;4.360;2022-11-30T06:09:28;32.50;;;15.40;;
2390;SDS011;22957;50.824;4.360;2022-11-30T06:11:54;39.03;;;18.33;;
2390;SDS011;22957;50.824;4.360;2022-11-30T06:14:20;49.30;;;19.87;;
2390;SDS011;22957;50.824;4.360;2022-11-30T06:16:45;40.50;;;17.53;;
2390;SDS011;22957;50.824;4.360;2022-11-30T06:19:11;46.70;;;18.40;;
2390;SDS011;22957;50.824;4.360;2022-11-30T06:21:36;40.53;;;14.90;;
2390;SDS011;22957;50.824;4.360;2022-11-30T06:24:02;32.03;;;14.87;;
2390;SDS011;22957;50.824;4.360;2022-11-30T06:26:28;35.17;;;15.00;;
2390;SDS011;22957;50.824;4.360;2022-11-30T06:28:54;51.53;;;18.60;;
2390;SDS011;22957;50.824;4.360;2022-11-30T06:31:19;37.37;;;16.20;;
2390;SDS011;22957;50.824;4.360;2022-11-30T06:33:45;47.23;;;18.97;;
2390;SDS011;22957;50.824;4.360;2022-11-30T06:36:11;42.07;;;17.93;;
2390;SDS011;22957;50.824;4.360;2022-11-30T06:38:36;46.97;;;20.10;;
2390;SDS011;22957;50.824;4.360;2022-11-30T06:41:06;29.63;;;13.87;;
2390;SDS011;22957;50.824;4.360;2022-11-30T06:43:36;51.90;;;20.90;;
2390;SDS011;22957;50.824;4.360;2022-11-30T06:46:02;47.47;;;18.53;;
2390;SDS011;22957;50.824;4.360;2022-11-30T06:48:29;33.50;;;15.00;;
2390;SDS011;22957;50.824;4.360;2022-11-30T06:50:55;41.30;;;16.03;;
2390;SDS011;22957;50.824;4.360;2022-11-30T06:53:21;48.73;;;18.03;;
2390;SDS011;22957;50.824;4.360;2022-11-30T06:55:46;47.37;;;19.97;;
2390;SDS011;22957;50.824;4.360;2022-11-30T06:58:12;42.03;;;15.37;;
2390;SDS011;22957;50.824;4.360;2022-11-30T07:00:38;33.30;;;14.20;;
2390;SDS011;22957;50.824;4.360;2022-11-30T07:03:04;37.83;;;16.63;;
2390;SDS011;22957;50.824;4.360;2022-11-30T07:05:34;33.00;;;14.20;;
2390;SDS011;22957;50.824;4.360;2022-11-30T07:08:05;43.40;;;15.40;;
2390;SDS011;22957;50.824;4.360;2022-11-30T07:10:31;41.23;;;17.60;;
2390;SDS011;22957;50.824;4.360;2022-11-30T07:12:57;33.70;;;15.23;;
2390;SDS011;22957;50.824;4.360;2022-11-30T07:15:22;39.13;;;15.63;;
2390;SDS011;22957;50.824;4.360;2022-11-30T07:17:48;33.20;;;15.07;;
2390;SDS011;22957;50.824;4.360;2022-11-30T07:20:14;45.27;;;16.97;;
2390;SDS011;22957;50.824;4.360;2022-11-30T07:22:40;38.83;;;16.87;;
2390;SDS011;22957;50.824;4.360;2022-11-30T07:25:06;41.23;;;17.60;;
2390;SDS011;22957;50.824;4.360;2022-11-30T07:27:50;41.13;;;15.43;;
2390;SDS011;22957;50.824;4.360;2022-11-30T07:30:16;42.83;;;16.03;;
2390;SDS011;22957;50.824;4.360;2022-11-30T07:32:42;40.97;;;17.33;;
2390;SDS011;22957;50.824;4.360;2022-11-30T07:35:07;43.33;;;17.97;;
2390;SDS011;22957;50.824;4.360;2022-11-30T07:37:33;42.37;;;19.97;;
2390;SDS011;22957;50.824;4.360;2022-11-30T07:39:59;50.53;;;21.13;;
2390;SDS011;22957;50.824;4.360;2022-11-30T07:42:24;45.30;;;19.17;;
2390;SDS011;22957;50.824;4.360;2022-11-30T07:44:50;32.60;;;14.83;;
2390;SDS011;22957;50.824;4.360;2022-11-30T07:47:16;34.83;;;16.30;;
2390;SDS011;22957;50.824;4.360;2022-11-30T07:49:41;34.77;;;16.20;;
2390;SDS011;22957;50.824;4.360;2022-11-30T07:52:07;37.20;;;17.37;;
2390;SDS011;22957;50.824;4.360;2022-11-30T07:54:33;44.90;;;18.00;;
2390;SDS011;22957;50.824;4.360;2022-11-30T07:56:59;38.63;;;17.27;;
2390;SDS011;22957;50.824;4.360;2022-11-30T07:59:24;43.37;;;18.97;;
2390;SDS011;22957;50.824;4.360;2022-11-30T08:01:50;44.60;;;19.50;;
2390;SDS011;22957;50.824;4.360;2022-11-30T08:04:16;44.03;;;21.20;;
2390;SDS011;22957;50.824;4.360;2022-11-30T08:06:42;39.53;;;18.17;;
2390;SDS011;22957;50.824;4.360;2022-11-30T08:09:09;39.73;;;17.63;;
2390;SDS011;22957;50.824;4.360;2022-11-30T08:11:36;43.30;;;20.33;;
2390;SDS011;22957;50.824;4.360;2022-11-30T08:14:02;38.17;;;17.40;;
2390;SDS011;22957;50.824;4.360;2022-11-30T08:16:29;50.03;;;22.40;;
2390;SDS011;22957;50.824;4.360;2022-11-30T08:18:58;43.07;;;16.90;;
2390;SDS011;22957;50.824;4.360;2022-11-30T08:21:23;42.87;;;18.10;;
2390;SDS011;22957;50.824;4.360;2022-11-30T08:23:53;42.80;;;19.67;;
2390;SDS011;22957;50.824;4.360;2022-11-30T08:26:30;38.30;;;17.20;;
2390;SDS011;22957;50.824;4.360;2022-11-30T08:28:57;48.67;;;22.73;;
2390;SDS011;22957;50.824;4.360;2022-11-30T08:31:26;36.07;;;17.60;;
2390;SDS011;22957;50.824;4.360;2022-11-30T08:33:55;49.87;;;19.63;;
2390;SDS011;22957;50.824;4.360;2022-11-30T08:36:23;39.77;;;18.27;;
2390;SDS011;22957;50.824;4.360;2022-11-30T08:38:50;40.07;;;17.80;;
2390;SDS011;22957;50.824;4.360;2022-11-30T08:41:18;40.50;;;16.93;;
2390;SDS011;22957;50.824;4.360;2022-11-30T08:43:45;47.23;;;18.93;;
2390;SDS011;22957;50.824;4.360;2022-11-30T08:46:13;45.20;;;19.27;;
2390;SDS011;22957;50.824;4.360;2022-11-30T08:48:40;44.70;;;19.80;;
2390;SDS011;22957;50.824;4.360;2022-11-30T08:51:06;43.00;;;19.90;;
2390;SDS011;22957;50.824;4.360;2022-11-30T08:53:35;40.73;;;18.20;;
2390;SDS011;22957;50.824;4.360;2022-11-30T08:56:02;38.63;;;17.63;;
2390;SDS011;22957;50.824;4.360;2022-11-30T08:58:30;43.07;;;20.80;;
2390;SDS011;22957;50.824;4.360;2022-11-30T09:03:33;32.60;;;17.00;;
2390;SDS011;22957;50.824;4.360;2022-11-30T09:06:06;43.03;;;19.80;;
2390;SDS011;22957;50.824;4.360;2022-11-30T09:08:32;45.40;;;19.17;;
2390;SDS011;22957;50.824;4.360;2022-11-30T09:10:58;45.70;;;20.30;;
2390;SDS011;22957;50.824;4.360;2022-11-30T09:13:34;48.70;;;20.30;;
2390;SDS011;22957;50.824;4.360;2022-11-30T09:16:00;43.20;;;20.40;;
2390;SDS011;22957;50.824;4.360;2022-11-30T09:18:26;48.10;;;18.70;;
2390;SDS011;22957;50.824;4.360;2022-11-30T09:20:52;49.83;;;23.23;;
2390;SDS011;22957;50.824;4.360;2022-11-30T09:23:18;42.30;;;19.00;;
2390;SDS011;22957;50.824;4.360;2022-11-30T09:25:44;42.47;;;17.60;;
2390;SDS011;22957;50.824;4.360;2022-11-30T09:28:10;43.40;;;20.87;;
2390;SDS011;22957;50.824;4.360;2022-11-30T09:30:35;45.43;;;19.90;;
2390;SDS011;22957;50.824;4.360;2022-11-30T09:33:01;41.67;;;17.77;;
2390;SDS011;22957;50.824;4.360;2022-11-30T09:35:30;43.63;;;19.10;;
2390;SDS011;22957;50.824;4.360;2022-11-30T09:37:55;38.17;;;17.93;;
2390;SDS011;22957;50.824;4.360;2022-11-30T09:40:21;39.57;;;18.30;;
2390;SDS011;22957;50.824;4.360;2022-11-30T09:42:54;42.27;;;20.10;;
2390;SDS011;22957;50.824;4.360;2022-11-30T09:45:29;43.80;;;18.83;;
2390;SDS011;22957;50.824;4.360;2022-11-30T09:50:43;47.83;;;23.53;;
2390;SDS011;22957;50.824;4.360;2022-11-30T09:53:33;36.43;;;19.60;;
2390;SDS011;22957;50.824;4.360;2022-11-30T09:56:13;34.67;;;17.53;;
2390;SDS011;22957;50.824;4.360;2022-11-30T09:59:03;44.50;;;21.67;;
2390;SDS011;22957;50.824;4.360;2022-11-30T10:01:37;30.33;;;16.60;;
2390;SDS011;22957;50.824;4.360;2022-11-30T10:04:04;34.30;;;17.73;;
2390;SDS011;22957;50.824;4.360;2022-11-30T10:06:42;34.43;;;17.23;;
2390;SDS011;22957;50.824;4.360;2022-11-30T10:12:35;40.77;;;19.10;;
2390;SDS011;22957;50.824;4.360;2022-11-30T10:17:55;36.77;;;18.13;;
2390;SDS011;22957;50.824;4.360;2022-11-30T10:25:51;37.00;;;18.23;;
2390;SDS011;22957;50.824;4.360;2022-11-30T10:31:34;34.30;;;17.40;;
2390;SDS011;22957;50.824;4.360;2022-11-30T10:34:14;42.10;;;22.70;;
2390;SDS011;22957;50.824;4.360;2022-11-30T10:36:45;33.83;;;17.93;;
2390;SDS011;22957;50.824;4.360;2022-11-30T10:39:33;35.80;;;17.20;;
2390;SDS011;22957;50.824;4.360;2022-11-30T10:42:11;35.40;;;17.23;;
2390;SDS011;22957;50.824;4.360;2022-11-30T10:44:47;32.17;;;17.23;;
2390;SDS011;22957;50.824;4.360;2022-11-30T10:47:33;33.13;;;15.53;;
2390;SDS011;22957;50.824;4.360;2022-11-30T10:50:02;37.20;;;20.10;;
2390;SDS011;22957;50.824;4.360;2022-11-30T10:52:37;34.70;;;18.17;;
2390;SDS011;22957;50.824;4.360;2022-11-30T10:55:20;33.83;;;19.03;;
2390;SDS011;22957;50.824;4.360;2022-11-30T10:57:53;29.60;;;18.90;;
2390;SDS011;22957;50.824;4.360;2022-11-30T11:00:26;33.93;;;20.60;;
2390;SDS011;22957;50.824;4.360;2022-11-30T11:02:52;30.87;;;18.27;;
2390;SDS011;22957;50.824;4.360;2022-11-30T11:05:27;46.03;;;20.27;;
2390;SDS011;22957;50.824;4.360;2022-11-30T11:12:52;43.53;;;22.20;;
2390;SDS011;22957;50.824;4.360;2022-11-30T11:15:25;33.13;;;18.20;;
2390;SDS011;22957;50.824;4.360;2022-11-30T11:20:40;30.00;;;17.63;;
2390;SDS011;22957;50.824;4.360;2022-11-30T11:23:23;36.17;;;20.37;;
2390;SDS011;22957;50.824;4.360;2022-11-30T11:25:56;34.47;;;19.47;;
2390;SDS011;22957;50.824;4.360;2022-11-30T11:28:22;26.10;;;15.93;;
2390;SDS011;22957;50.824;4.360;2022-11-30T11:30:53;31.37;;;16.97;;
2390;SDS011;22957;50.824;4.360;2022-11-30T11:38:42;31.23;;;16.50;;
2390;SDS011;22957;50.824;4.360;2022-11-30T11:41:11;34.53;;;18.23;;
2390;SDS011;22957;50.824;4.360;2022-11-30T11:46:24;44.47;;;24.27;;
2390;SDS011;22957;50.824;4.360;2022-11-30T11:51:48;42.37;;;20.07;;
2390;SDS011;22957;50.824;4.360;2022-11-30T11:54:37;43.70;;;21.97;;
2390;SDS011;22957;50.824;4.360;2022-11-30T11:57:13;36.37;;;19.13;;
2390;SDS011;22957;50.824;4.360;2022-11-30T11:59:48;33.73;;;20.17;;
2390;SDS011;22957;50.824;4.360;2022-11-30T12:02:37;36.60;;;18.40;;
2390;SDS011;22957;50.824;4.360;2022-11-30T12:07:58;46.33;;;22.57;;
2390;SDS011;22957;50.824;4.360;2022-11-30T12:10:54;28.13;;;15.57;;
2390;SDS011;22957;50.824;4.360;2022-11-30T12:13:30;45.37;;;20.60;;
2390;SDS011;22957;50.824;4.360;2022-11-30T12:32:46;32.50;;;17.90;;
2390;SDS011;22957;50.824;4.360;2022-11-30T12:35:38;31.83;;;16.40;;
2390;SDS011;22957;50.824;4.360;2022-11-30T12:38:25;47.10;;;20.40;;
2390;SDS011;22957;50.824;4.360;2022-11-30T12:41:18;40.23;;;23.13;;
2390;SDS011;22957;50.824;4.360;2022-11-30T13:06:15;47.73;;;23.20;;
2390;SDS011;22957;50.824;4.360;2022-11-30T13:08:48;49.07;;;24.30;;
2390;SDS011;22957;50.824;4.360;2022-11-30T13:11:42;43.53;;;20.70;;
2390;SDS011;22957;50.824;4.360;2022-11-30T13:14:13;41.57;;;21.17;;
2390;SDS011;22957;50.824;4.360;2022-11-30T13:16:42;39.73;;;19.03;;
2390;SDS011;22957;50.824;4.360;2022-11-30T13:21:58;34.00;;;17.47;;
2390;SDS011;22957;50.824;4.360;2022-11-30T13:24:34;33.77;;;18.90;;
2390;SDS011;22957;50.824;4.360;2022-11-30T13:32:21;39.33;;;20.53;;
2390;SDS011;22957;50.824;4.360;2022-11-30T13:34:47;30.37;;;16.17;;
2390;SDS011;22957;50.824;4.360;2022-11-30T13:44:52;40.30;;;18.13;;
2390;SDS011;22957;50.824;4.360;2022-11-30T13:49:52;39.23;;;20.73;;
2390;SDS011;22957;50.824;4.360;2022-11-30T13:52:55;42.30;;;22.67;;
2390;SDS011;22957;50.824;4.360;2022-11-30T13:58:06;39.77;;;20.60;;
2390;SDS011;22957;50.824;4.360;2022-11-30T14:05:49;44.67;;;22.00;;
2390;SDS011;22957;50.824;4.360;2022-11-30T14:10:46;43.70;;;22.10;;
2390;SDS011;22957;50.824;4.360;2022-11-30T14:18:18;48.93;;;23.50;;
2390;SDS011;22957;50.824;4.360;2022-11-30T14:23:47;38.60;;;19.37;;
2390;SDS011;22957;50.824;4.360;2022-11-30T14:26:22;33.03;;;17.27;;
2390;SDS011;22957;50.824;4.360;2022-11-30T14:29:07;51.70;;;22.23;;
2390;SDS011;22957;50.824;4.360;2022-11-30T14:34:34;53.60;;;24.47;;
2390;SDS011;22957;50.824;4.360;2022-11-30T14:37:09;38.60;;;22.57;;
2390;SDS011;22957;50.824;4.360;2022-11-30T14:39:47;39.27;;;20.00;;
2390;SDS011;22957;50.824;4.360;2022-11-30T14:42:18;37.20;;;18.63;;
2390;SDS011;22957;50.824;4.360;2022-11-30T14:44:46;46.87;;;20.10;;
2390;SDS011;22957;50.824;4.360;2022-11-30T14:47:31;38.57;;;17.30;;
2390;SDS011;22957;50.824;4.360;2022-11-30T14:49:59;37.07;;;19.10;;
2390;SDS011;22957;50.824;4.360;2022-11-30T14:55:28;38.93;;;19.23;;
2390;SDS011;22957;50.824;4.360;2022-11-30T14:58:21;41.00;;;20.57;;
2390;SDS011;22957;50.824;4.360;2022-11-30T15:00:56;42.30;;;22.20;;
2390;SDS011;22957;50.824;4.360;2022-11-30T15:03:27;47.30;;;23.77;;
2390;SDS011;22957;50.824;4.360;2022-11-30T15:06:03;38.20;;;19.97;;
2390;SDS011;22957;50.824;4.360;2022-11-30T15:11:05;38.27;;;20.97;;
2390;SDS011;22957;50.824;4.360;2022-11-30T15:13:33;50.20;;;24.53;;
2390;SDS011;22957;50.824;4.360;2022-11-30T15:16:07;54.70;;;23.50;;
2390;SDS011;22957;50.824;4.360;2022-11-30T15:18:40;46.40;;;23.00;;
2390;SDS011;22957;50.824;4.360;2022-11-30T15:21:06;29.60;;;16.23;;
2390;SDS011;22957;50.824;4.360;2022-11-30T15:23:41;40.43;;;20.97;;
2390;SDS011;22957;50.824;4.360;2022-11-30T15:26:12;40.63;;;20.37;;
2390;SDS011;22957;50.824;4.360;2022-11-30T15:29:20;39.33;;;20.00;;
2390;SDS011;22957;50.824;4.360;2022-11-30T15:31:48;40.80;;;19.90;;
2390;SDS011;22957;50.824;4.360;2022-11-30T15:34:20;37.07;;;19.87;;
2390;SDS011;22957;50.824;4.360;2022-11-30T15:36:53;36.40;;;19.53;;
2390;SDS011;22957;50.824;4.360;2022-11-30T15:39:22;41.10;;;21.60;;
2390;SDS011;22957;50.824;4.360;2022-11-30T15:41:53;42.60;;;20.63;;
2390;SDS011;22957;50.824;4.360;2022-11-30T15:44:25;40.47;;;21.20;;
2390;SDS011;22957;50.824;4.360;2022-11-30T15:47:00;47.37;;;22.40;;
2390;SDS011;22957;50.824;4.360;2022-11-30T15:49:30;38.47;;;20.73;;
2390;SDS011;22957;50.824;4.360;2022-11-30T15:57:16;46.73;;;25.07;;
2390;SDS011;22957;50.824;4.360;2022-11-30T15:59:43;49.27;;;25.13;;
2390;SDS011;22957;50.824;4.360;2022-11-30T16:02:33;43.40;;;21.53;;
2390;SDS011;22957;50.824;4.360;2022-11-30T16:07:37;38.47;;;18.43;;
2390;SDS011;22957;50.824;4.360;2022-11-30T16:10:13;43.13;;;22.70;;
2390;SDS011;22957;50.824;4.360;2022-11-30T16:12:41;42.27;;;20.17;;
2390;SDS011;22957;50.824;4.360;2022-11-30T16:17:48;35.63;;;18.40;;
2390;SDS011;22957;50.824;4.360;2022-11-30T16:20:14;35.20;;;18.30;;
2390;SDS011;22957;50.824;4.360;2022-11-30T16:22:41;47.43;;;23.97;;
2390;SDS011;22957;50.824;4.360;2022-11-30T16:25:23;47.93;;;24.77;;
2390;SDS011;22957;50.824;4.360;2022-11-30T16:27:50;49.77;;;21.93;;
2390;SDS011;22957;50.824;4.360;2022-11-30T16:30:17;46.43;;;21.80;;
2390;SDS011;22957;50.824;4.360;2022-11-30T16:32:45;50.30;;;24.93;;
2390;SDS011;22957;50.824;4.360;2022-11-30T16:35:19;44.87;;;21.90;;
2390;SDS011;22957;50.824;4.360;2022-11-30T16:37:48;48.43;;;23.23;;
2390;SDS011;22957;50.824;4.360;2022-11-30T16:40:15;58.80;;;28.13;;
2390;SDS011;22957;50.824;4.360;2022-11-30T16:42:41;52.20;;;23.90;;
2390;SDS011;22957;50.824;4.360;2022-11-30T16:45:14;45.80;;;22.80;;
2390;SDS011;22957;50.824;4.360;2022-11-30T16:47:44;52.13;;;22.70;;
2390;SDS011;22957;50.824;4.360;2022-11-30T16:50:10;46.77;;;24.13;;
2390;SDS011;22957;50.824;4.360;2022-11-30T16:52:38;46.77;;;23.10;;
2390;SDS011;22957;50.824;4.360;2022-11-30T16:55:15;52.40;;;25.30;;
2390;SDS011;22957;50.824;4.360;2022-11-30T16:57:42;58.23;;;26.43;;
2390;SDS011;22957;50.824;4.360;2022-11-30T17:00:09;58.03;;;26.87;;
2390;SDS011;22957;50.824;4.360;2022-11-30T17:02:44;57.27;;;25.63;;
2390;SDS011;22957;50.824;4.360;2022-11-30T17:05:18;52.87;;;25.40;;
2390;SDS011;22957;50.824;4.360;2022-11-30T17:07:45;55.67;;;25.40;;
2390;SDS011;22957;50.824;4.360;2022-11-30T17:10:10;52.27;;;26.00;;
2390;SDS011;22957;50.824;4.360;2022-11-30T17:12:37;66.17;;;26.47;;
2390;SDS011;22957;50.824;4.360;2022-11-30T17:15:03;57.07;;;28.20;;
2390;SDS011;22957;50.824;4.360;2022-11-30T17:17:30;55.80;;;25.70;;
2390;SDS011;22957;50.824;4.360;2022-11-30T17:19:55;52.63;;;26.83;;
2390;SDS011;22957;50.824;4.360;2022-11-30T17:22:21;52.53;;;26.13;;
2390;SDS011;22957;50.824;4.360;2022-11-30T17:24:46;54.03;;;26.37;;
2390;SDS011;22957;50.824;4.360;2022-11-30T17:27:12;60.30;;;28.80;;